sensor_id;sensor_type;location;lat;lon;timestamp;temperature;humidity
65692;DHT22;52411;52.716;6.696;2023-09-12T00:01:33;19.60;99.90
65692;DHT22;52411;52.716;6.696;2023-09-12T00:03:59;19.60;99.90
65692;DHT22;52411;52.716;6.696;2023-09-12T00:06:24;19.60;99.90
65692;DHT22;52411;52.716;6.696;2023-09-12T00:08:51;19.60;99.90
65692;DHT22;52411;52.716;6.696;2023-09-12T00:11:17;19.60;99.90
65692;DHT22;52411;52.716;6.696;2023-09-12T00:13:44;19.60;99.90
65692;DHT22;52411;52.716;6.696;2023-09-12T00:16:10;19.60;99.90
65692;DHT22;52411;52.716;6.696;2023-09-12T00:18:39;19.50;99.90
65692;DHT22;52411;52.716;6.696;2023-09-12T00:21:05;19.50;99.90
65692;DHT22;52411;52.716;6.696;2023-09-12T00:23:31;19.50;99.90
65692;DHT22;52411;52.716;6.696;2023-09-12T00:25:57;19.50;99.90
65692;DHT22;52411;52.716;6.696;2023-09-12T00:28:23;19.50;99.90
65692;DHT22;52411;52.716;6.696;2023-09-12T00:30:49;19.50;99.90
65692;DHT22;52411;52.716;6.696;2023-09-12T00:33:15;19.50;99.90
65692;DHT22;52411;52.716;6.696;2023-09-12T00:35:40;19.40;99.90
65692;DHT22;52411;52.716;6.696;2023-09-12T00:38:06;19.50;99.90
65692;DHT22;52411;52.716;6.696;2023-09-12T00:40:32;19.50;99.90
65692;DHT22;52411;52.716;6.696;2023-09-12T00:42:58;19.50;99.90
65692;DHT22;52411;52.716;6.696;2023-09-12T00:45:24;19.50;99.90
65692;DHT22;52411;52.716;6.696;2023-09-12T00:47:51;19.50;99.90
65692;DHT22;52411;52.716;6.696;2023-09-12T00:50:18;19.50;99.90
65692;DHT22;52411;52.716;6.696;2023-09-12T00:52:45;19.50;99.90
65692;DHT22;52411;52.716;6.696;2023-09-12T00:55:11;19.60;99.90
65692;DHT22;52411;52.716;6.696;2023-09-12T00:57:37;19.50;99.90
65692;DHT22;52411;52.716;6.696;2023-09-12T01:00:04;19.60;99.90
65692;DHT22;52411;52.716;6.696;2023-09-12T01:02:44;19.60;99.90
65692;DHT22;52411;52.716;6.696;2023-09-12T01:05:13;19.60;99.90
65692;DHT22;52411;52.716;6.696;2023-09-12T01:07:39;19.50;99.90
65692;DHT22;52411;52.716;6.696;2023-09-12T01:10:06;19.50;99.90
65692;DHT22;52411;52.716;6.696;2023-09-12T01:12:32;19.50;99.90
65692;DHT22;52411;52.716;6.696;2023-09-12T01:14:58;19.40;99.90
65692;DHT22;52411;52.716;6.696;2023-09-12T01:17:24;19.40;99.90
65692;DHT22;52411;52.716;6.696;2023-09-12T01:19:50;19.30;99.90
65692;DHT22;52411;52.716;6.696;2023-09-12T01:27:48;19.10;99.90
65692;DHT22;52411;52.716;6.696;2023-09-12T01:30:18;19.00;99.90
65692;DHT22;52411;52.716;6.696;2023-09-12T01:32:45;18.90;99.90
65692;DHT22;52411;52.716;6.696;2023-09-12T01:35:12;18.90;99.90
65692;DHT22;52411;52.716;6.696;2023-09-12T01:37:38;18.80;99.90
65692;DHT22;52411;52.716;6.696;2023-09-12T01:40:04;18.70;99.90
65692;DHT22;52411;52.716;6.696;2023-09-12T01:42:42;18.60;99.90
65692;DHT22;52411;52.716;6.696;2023-09-12T01:45:17;18.50;99.90
65692;DHT22;52411;52.716;6.696;2023-09-12T01:47:45;18.40;99.90
65692;DHT22;52411;52.716;6.696;2023-09-12T01:50:12;18.40;99.90
65692;DHT22;52411;52.716;6.696;2023-09-12T01:52:39;18.40;99.90
65692;DHT22;52411;52.716;6.696;2023-09-12T01:55:06;18.40;99.90
65692;DHT22;52411;52.716;6.696;2023-09-12T01:57:35;18.40;99.90
65692;DHT22;52411;52.716;6.696;2023-09-12T02:00:01;18.30;99.90
65692;DHT22;52411;52.716;6.696;2023-09-12T02:02:26;18.40;99.90
65692;DHT22;52411;52.716;6.696;2023-09-12T02:05:17;18.40;99.90
65692;DHT22;52411;52.716;6.696;2023-09-12T02:07:44;18.30;99.90
65692;DHT22;52411;52.716;6.696;2023-09-12T02:10:10;18.30;99.90
65692;DHT22;52411;52.716;6.696;2023-09-12T02:12:36;18.20;99.90
65692;DHT22;52411;52.716;6.696;2023-09-12T02:15:03;18.30;99.90
65692;DHT22;52411;52.716;6.696;2023-09-12T02:17:28;18.20;99.90
65692;DHT22;52411;52.716;6.696;2023-09-12T02:19:54;18.20;99.90
65692;DHT22;52411;52.716;6.696;2023-09-12T02:22:20;18.20;99.90
65692;DHT22;52411;52.716;6.696;2023-09-12T02:24:45;18.10;99.90
65692;DHT22;52411;52.716;6.696;2023-09-12T02:27:11;18.10;99.90
65692;DHT22;52411;52.716;6.696;2023-09-12T02:29:38;18.10;99.90
65692;DHT22;52411;52.716;6.696;2023-09-12T02:32:05;18.10;99.90
65692;DHT22;52411;52.716;6.696;2023-09-12T02:34:30;18.10;99.90
65692;DHT22;52411;52.716;6.696;2023-09-12T02:36:56;18.10;99.90
65692;DHT22;52411;52.716;6.696;2023-09-12T02:39:21;18.10;99.90
65692;DHT22;52411;52.716;6.696;2023-09-12T02:41:47;18.10;99.90
65692;DHT22;52411;52.716;6.696;2023-09-12T02:44:12;18.00;99.90
65692;DHT22;52411;52.716;6.696;2023-09-12T02:46:38;18.10;99.90
65692;DHT22;52411;52.716;6.696;2023-09-12T02:49:04;18.10;99.90
65692;DHT22;52411;52.716;6.696;2023-09-12T02:51:29;18.10;99.90
65692;DHT22;52411;52.716;6.696;2023-09-12T02:53:55;18.10;99.90
65692;DHT22;52411;52.716;6.696;2023-09-12T02:56:20;18.20;99.90
65692;DHT22;52411;52.716;6.696;2023-09-12T02:58:46;18.30;99.90
65692;DHT22;52411;52.716;6.696;2023-09-12T03:01:19;18.40;99.90
65692;DHT22;52411;52.716;6.696;2023-09-12T03:03:49;18.50;99.90
65692;DHT22;52411;52.716;6.696;2023-09-12T03:06:15;18.50;99.90
65692;DHT22;52411;52.716;6.696;2023-09-12T03:08:41;18.60;99.90
65692;DHT22;52411;52.716;6.696;2023-09-12T03:11:07;18.70;99.90
65692;DHT22;52411;52.716;6.696;2023-09-12T03:13:34;18.70;99.90
65692;DHT22;52411;52.716;6.696;2023-09-12T03:16:00;18.70;99.90
65692;DHT22;52411;52.716;6.696;2023-09-12T03:18:26;18.70;99.90
65692;DHT22;52411;52.716;6.696;2023-09-12T03:20:51;18.70;99.90
65692;DHT22;52411;52.716;6.696;2023-09-12T03:23:19;18.70;99.90
65692;DHT22;52411;52.716;6.696;2023-09-12T03:25:44;18.70;99.90
65692;DHT22;52411;52.716;6.696;2023-09-12T03:28:10;18.70;99.90
65692;DHT22;52411;52.716;6.696;2023-09-12T03:30:37;18.70;99.90
65692;DHT22;52411;52.716;6.696;2023-09-12T03:33:03;18.70;99.90
65692;DHT22;52411;52.716;6.696;2023-09-12T03:35:30;18.70;99.90
65692;DHT22;52411;52.716;6.696;2023-09-12T03:37:56;18.70;99.90
65692;DHT22;52411;52.716;6.696;2023-09-12T03:40:22;18.70;99.90
65692;DHT22;52411;52.716;6.696;2023-09-12T03:42:47;18.60;99.90
65692;DHT22;52411;52.716;6.696;2023-09-12T03:45:13;18.60;99.90
65692;DHT22;52411;52.716;6.696;2023-09-12T03:47:38;18.60;99.90
65692;DHT22;52411;52.716;6.696;2023-09-12T03:50:04;18.60;99.90
65692;DHT22;52411;52.716;6.696;2023-09-12T03:52:30;18.60;99.90
65692;DHT22;52411;52.716;6.696;2023-09-12T03:54:56;18.50;99.90
65692;DHT22;52411;52.716;6.696;2023-09-12T03:57:21;18.50;99.90
65692;DHT22;52411;52.716;6.696;2023-09-12T03:59:47;18.60;99.90
65692;DHT22;52411;52.716;6.696;2023-09-12T04:02:13;18.60;99.90
65692;DHT22;52411;52.716;6.696;2023-09-12T04:04:39;18.50;99.90
65692;DHT22;52411;52.716;6.696;2023-09-12T04:07:05;18.50;99.90
65692;DHT22;52411;52.716;6.696;2023-09-12T04:09:31;18.50;99.90
65692;DHT22;52411;52.716;6.696;2023-09-12T04:11:56;18.50;99.90
65692;DHT22;52411;52.716;6.696;2023-09-12T04:14:22;18.50;99.90
65692;DHT22;52411;52.716;6.696;2023-09-12T04:16:47;18.50;99.90
65692;DHT22;52411;52.716;6.696;2023-09-12T04:19:14;18.50;99.90
65692;DHT22;52411;52.716;6.696;2023-09-12T04:21:40;18.50;99.90
65692;DHT22;52411;52.716;6.696;2023-09-12T04:24:06;18.40;99.90
65692;DHT22;52411;52.716;6.696;2023-09-12T04:26:32;18.40;99.90
65692;DHT22;52411;52.716;6.696;2023-09-12T04:28:57;18.40;99.90
65692;DHT22;52411;52.716;6.696;2023-09-12T04:31:23;18.50;99.90
65692;DHT22;52411;52.716;6.696;2023-09-12T04:33:51;18.50;99.90
65692;DHT22;52411;52.716;6.696;2023-09-12T04:36:17;18.40;99.90
65692;DHT22;52411;52.716;6.696;2023-09-12T04:38:42;18.40;99.90
65692;DHT22;52411;52.716;6.696;2023-09-12T04:41:08;18.40;99.90
65692;DHT22;52411;52.716;6.696;2023-09-12T04:43:34;18.40;99.90
65692;DHT22;52411;52.716;6.696;2023-09-12T04:45:59;18.40;99.90
65692;DHT22;52411;52.716;6.696;2023-09-12T04:48:25;18.40;99.90
65692;DHT22;52411;52.716;6.696;2023-09-12T04:50:50;18.30;99.90
65692;DHT22;52411;52.716;6.696;2023-09-12T04:53:16;18.40;99.90
65692;DHT22;52411;52.716;6.696;2023-09-12T04:55:42;18.30;99.90
65692;DHT22;52411;52.716;6.696;2023-09-12T04:58:07;18.30;99.90
65692;DHT22;52411;52.716;6.696;2023-09-12T05:00:34;18.40;99.90
65692;DHT22;52411;52.716;6.696;2023-09-12T05:03:01;18.30;99.90
65692;DHT22;52411;52.716;6.696;2023-09-12T05:05:26;18.30;99.90
65692;DHT22;52411;52.716;6.696;2023-09-12T05:07:52;18.30;99.90
65692;DHT22;52411;52.716;6.696;2023-09-12T05:10:18;18.30;99.90
65692;DHT22;52411;52.716;6.696;2023-09-12T05:12:44;18.30;99.90
65692;DHT22;52411;52.716;6.696;2023-09-12T05:15:10;18.30;99.90
65692;DHT22;52411;52.716;6.696;2023-09-12T05:17:36;18.30;99.90
65692;DHT22;52411;52.716;6.696;2023-09-12T05:20:02;18.30;99.90
65692;DHT22;52411;52.716;6.696;2023-09-12T05:22:30;18.30;99.90
65692;DHT22;52411;52.716;6.696;2023-09-12T05:24:56;18.30;99.90
65692;DHT22;52411;52.716;6.696;2023-09-12T05:27:21;18.20;99.90
65692;DHT22;52411;52.716;6.696;2023-09-12T05:29:47;18.20;99.90
65692;DHT22;52411;52.716;6.696;2023-09-12T05:32:12;18.10;99.90
65692;DHT22;52411;52.716;6.696;2023-09-12T05:34:38;18.10;99.90
65692;DHT22;52411;52.716;6.696;2023-09-12T05:37:04;18.10;99.90
65692;DHT22;52411;52.716;6.696;2023-09-12T05:39:29;18.10;99.90
65692;DHT22;52411;52.716;6.696;2023-09-12T05:41:55;18.20;99.90
65692;DHT22;52411;52.716;6.696;2023-09-12T05:44:20;18.30;99.90
65692;DHT22;52411;52.716;6.696;2023-09-12T05:46:46;18.30;99.90
65692;DHT22;52411;52.716;6.696;2023-09-12T05:49:12;18.40;99.90
65692;DHT22;52411;52.716;6.696;2023-09-12T05:51:38;18.40;99.90
65692;DHT22;52411;52.716;6.696;2023-09-12T05:54:04;18.40;99.90
65692;DHT22;52411;52.716;6.696;2023-09-12T05:56:29;18.40;99.90
65692;DHT22;52411;52.716;6.696;2023-09-12T05:58:55;18.50;99.90
65692;DHT22;52411;52.716;6.696;2023-09-12T06:01:21;18.50;99.90
65692;DHT22;52411;52.716;6.696;2023-09-12T06:03:46;18.50;99.90
65692;DHT22;52411;52.716;6.696;2023-09-12T06:06:12;18.50;99.90
65692;DHT22;52411;52.716;6.696;2023-09-12T06:08:37;18.60;99.90
65692;DHT22;52411;52.716;6.696;2023-09-12T06:11:04;18.70;99.90
65692;DHT22;52411;52.716;6.696;2023-09-12T06:13:29;18.70;99.90
65692;DHT22;52411;52.716;6.696;2023-09-12T06:15:55;18.70;99.90
65692;DHT22;52411;52.716;6.696;2023-09-12T06:18:21;18.70;99.90
65692;DHT22;52411;52.716;6.696;2023-09-12T06:20:46;18.70;99.90
65692;DHT22;52411;52.716;6.696;2023-09-12T06:23:12;18.70;99.90
65692;DHT22;52411;52.716;6.696;2023-09-12T06:25:38;18.80;99.90
65692;DHT22;52411;52.716;6.696;2023-09-12T06:28:03;18.80;99.90
65692;DHT22;52411;52.716;6.696;2023-09-12T06:30:29;18.80;99.90
65692;DHT22;52411;52.716;6.696;2023-09-12T06:32:55;18.80;99.90
65692;DHT22;52411;52.716;6.696;2023-09-12T06:35:20;18.80;99.90
65692;DHT22;52411;52.716;6.696;2023-09-12T06:37:46;18.80;99.90
65692;DHT22;52411;52.716;6.696;2023-09-12T06:40:12;18.80;99.90
65692;DHT22;52411;52.716;6.696;2023-09-12T06:42:38;18.80;99.90
65692;DHT22;52411;52.716;6.696;2023-09-12T06:45:04;18.90;99.90
65692;DHT22;52411;52.716;6.696;2023-09-12T06:47:30;18.90;99.90
65692;DHT22;52411;52.716;6.696;2023-09-12T06:49:55;19.00;99.90
65692;DHT22;52411;52.716;6.696;2023-09-12T06:52:21;19.10;99.90
65692;DHT22;52411;52.716;6.696;2023-09-12T06:54:47;19.10;99.90
65692;DHT22;52411;52.716;6.696;2023-09-12T06:57:12;19.10;99.90
65692;DHT22;52411;52.716;6.696;2023-09-12T06:59:38;19.10;99.90
65692;DHT22;52411;52.716;6.696;2023-09-12T07:02:03;19.30;99.90
65692;DHT22;52411;52.716;6.696;2023-09-12T07:04:29;19.40;99.90
65692;DHT22;52411;52.716;6.696;2023-09-12T07:06:55;19.40;99.90
65692;DHT22;52411;52.716;6.696;2023-09-12T07:09:21;19.50;99.90
65692;DHT22;52411;52.716;6.696;2023-09-12T07:11:47;19.60;99.90
65692;DHT22;52411;52.716;6.696;2023-09-12T07:14:13;19.60;99.90
65692;DHT22;52411;52.716;6.696;2023-09-12T07:16:39;19.60;99.90
65692;DHT22;52411;52.716;6.696;2023-09-12T07:19:04;19.60;99.90
65692;DHT22;52411;52.716;6.696;2023-09-12T07:21:31;19.60;99.90
65692;DHT22;52411;52.716;6.696;2023-09-12T07:23:57;19.60;99.90
65692;DHT22;52411;52.716;6.696;2023-09-12T07:26:23;19.50;99.90
65692;DHT22;52411;52.716;6.696;2023-09-12T07:28:48;19.40;99.90
65692;DHT22;52411;52.716;6.696;2023-09-12T07:31:14;19.30;99.90
65692;DHT22;52411;52.716;6.696;2023-09-12T07:33:40;19.30;99.90
65692;DHT22;52411;52.716;6.696;2023-09-12T07:36:06;19.30;99.90
65692;DHT22;52411;52.716;6.696;2023-09-12T07:38:32;19.30;99.90
65692;DHT22;52411;52.716;6.696;2023-09-12T07:41:00;19.30;99.90
65692;DHT22;52411;52.716;6.696;2023-09-12T07:43:28;19.30;99.90
65692;DHT22;52411;52.716;6.696;2023-09-12T07:45:57;19.30;99.90
65692;DHT22;52411;52.716;6.696;2023-09-12T07:48:23;19.40;99.90
65692;DHT22;52411;52.716;6.696;2023-09-12T07:50:49;19.40;99.90
65692;DHT22;52411;52.716;6.696;2023-09-12T07:53:14;19.40;99.90
65692;DHT22;52411;52.716;6.696;2023-09-12T07:55:40;19.50;99.90
65692;DHT22;52411;52.716;6.696;2023-09-12T07:58:15;19.50;99.90
65692;DHT22;52411;52.716;6.696;2023-09-12T08:00:41;19.50;99.90
65692;DHT22;52411;52.716;6.696;2023-09-12T08:03:07;19.60;99.90
65692;DHT22;52411;52.716;6.696;2023-09-12T08:05:33;19.60;99.90
65692;DHT22;52411;52.716;6.696;2023-09-12T08:07:58;19.60;99.90
65692;DHT22;52411;52.716;6.696;2023-09-12T08:10:24;19.80;99.90
65692;DHT22;52411;52.716;6.696;2023-09-12T08:12:50;19.90;99.90
65692;DHT22;52411;52.716;6.696;2023-09-12T08:15:15;20.00;99.90
65692;DHT22;52411;52.716;6.696;2023-09-12T08:17:41;20.10;99.90
65692;DHT22;52411;52.716;6.696;2023-09-12T08:20:08;20.10;99.90
65692;DHT22;52411;52.716;6.696;2023-09-12T08:22:38;20.10;99.90
65692;DHT22;52411;52.716;6.696;2023-09-12T08:25:04;20.10;99.90
65692;DHT22;52411;52.716;6.696;2023-09-12T08:27:30;20.10;99.90
65692;DHT22;52411;52.716;6.696;2023-09-12T08:29:55;20.20;99.90
65692;DHT22;52411;52.716;6.696;2023-09-12T08:32:21;20.20;99.90
65692;DHT22;52411;52.716;6.696;2023-09-12T08:34:46;20.30;99.90
65692;DHT22;52411;52.716;6.696;2023-09-12T08:37:12;20.30;99.90
65692;DHT22;52411;52.716;6.696;2023-09-12T08:39:44;20.40;99.90
65692;DHT22;52411;52.716;6.696;2023-09-12T08:42:15;20.50;99.90
65692;DHT22;52411;52.716;6.696;2023-09-12T08:44:42;20.60;99.90
65692;DHT22;52411;52.716;6.696;2023-09-12T08:47:11;20.70;99.90
65692;DHT22;52411;52.716;6.696;2023-09-12T08:49:38;20.80;99.90
65692;DHT22;52411;52.716;6.696;2023-09-12T08:52:06;20.70;99.90
65692;DHT22;52411;52.716;6.696;2023-09-12T08:54:32;20.70;99.90
65692;DHT22;52411;52.716;6.696;2023-09-12T08:57:00;20.70;99.90
65692;DHT22;52411;52.716;6.696;2023-09-12T08:59:27;20.60;99.90
65692;DHT22;52411;52.716;6.696;2023-09-12T09:01:54;20.60;99.90
65692;DHT22;52411;52.716;6.696;2023-09-12T09:04:22;20.60;99.90
65692;DHT22;52411;52.716;6.696;2023-09-12T09:06:49;20.60;99.90
65692;DHT22;52411;52.716;6.696;2023-09-12T09:09:16;20.70;99.90
65692;DHT22;52411;52.716;6.696;2023-09-12T09:11:42;20.70;99.90
65692;DHT22;52411;52.716;6.696;2023-09-12T09:14:08;20.90;99.90
65692;DHT22;52411;52.716;6.696;2023-09-12T09:16:33;20.90;99.90
65692;DHT22;52411;52.716;6.696;2023-09-12T09:19:04;21.10;99.90
65692;DHT22;52411;52.716;6.696;2023-09-12T09:21:37;21.20;99.90
65692;DHT22;52411;52.716;6.696;2023-09-12T09:24:08;21.20;99.90
65692;DHT22;52411;52.716;6.696;2023-09-12T09:26:48;21.20;99.90
65692;DHT22;52411;52.716;6.696;2023-09-12T09:29:19;21.20;99.90
65692;DHT22;52411;52.716;6.696;2023-09-12T09:31:48;21.40;99.90
65692;DHT22;52411;52.716;6.696;2023-09-12T09:34:20;21.50;99.90
65692;DHT22;52411;52.716;6.696;2023-09-12T09:36:48;21.70;99.90
65692;DHT22;52411;52.716;6.696;2023-09-12T09:39:14;21.80;99.90
65692;DHT22;52411;52.716;6.696;2023-09-12T09:41:41;21.80;99.90
65692;DHT22;52411;52.716;6.696;2023-09-12T09:44:07;21.80;99.90
65692;DHT22;52411;52.716;6.696;2023-09-12T09:46:34;21.80;99.90
65692;DHT22;52411;52.716;6.696;2023-09-12T09:49:00;21.80;99.90
65692;DHT22;52411;52.716;6.696;2023-09-12T09:51:26;21.80;99.90
65692;DHT22;52411;52.716;6.696;2023-09-12T09:53:53;21.80;99.90
65692;DHT22;52411;52.716;6.696;2023-09-12T09:56:23;21.90;99.90
65692;DHT22;52411;52.716;6.696;2023-09-12T09:58:53;22.10;99.90
65692;DHT22;52411;52.716;6.696;2023-09-12T10:01:21;22.10;99.90
65692;DHT22;52411;52.716;6.696;2023-09-12T10:03:48;22.10;99.90
65692;DHT22;52411;52.716;6.696;2023-09-12T10:06:15;22.10;99.90
65692;DHT22;52411;52.716;6.696;2023-09-12T10:08:50;22.10;99.90
65692;DHT22;52411;52.716;6.696;2023-09-12T10:11:18;22.20;99.90
65692;DHT22;52411;52.716;6.696;2023-09-12T10:13:51;22.40;99.90
65692;DHT22;52411;52.716;6.696;2023-09-12T10:16:18;22.50;99.90
65692;DHT22;52411;52.716;6.696;2023-09-12T10:19:07;22.60;99.90
65692;DHT22;52411;52.716;6.696;2023-09-12T10:21:36;22.80;99.90
65692;DHT22;52411;52.716;6.696;2023-09-12T10:24:03;22.90;99.90
65692;DHT22;52411;52.716;6.696;2023-09-12T10:26:31;23.00;99.90
65692;DHT22;52411;52.716;6.696;2023-09-12T10:28:57;23.00;99.90
65692;DHT22;52411;52.716;6.696;2023-09-12T10:31:24;23.20;99.90
65692;DHT22;52411;52.716;6.696;2023-09-12T10:33:51;23.20;99.90
65692;DHT22;52411;52.716;6.696;2023-09-12T10:36:18;23.20;99.90
65692;DHT22;52411;52.716;6.696;2023-09-12T10:38:47;23.20;99.90
65692;DHT22;52411;52.716;6.696;2023-09-12T10:41:14;23.20;99.90
65692;DHT22;52411;52.716;6.696;2023-09-12T10:43:41;23.10;99.90
65692;DHT22;52411;52.716;6.696;2023-09-12T10:46:07;23.10;99.90
65692;DHT22;52411;52.716;6.696;2023-09-12T10:48:37;23.20;99.90
65692;DHT22;52411;52.716;6.696;2023-09-12T10:51:06;23.20;99.90
65692;DHT22;52411;52.716;6.696;2023-09-12T10:53:33;23.40;99.90
65692;DHT22;52411;52.716;6.696;2023-09-12T11:01:42;24.00;99.90
65692;DHT22;52411;52.716;6.696;2023-09-12T11:06:46;24.30;99.90
65692;DHT22;52411;52.716;6.696;2023-09-12T11:11:41;24.50;99.90
65692;DHT22;52411;52.716;6.696;2023-09-12T11:14:07;24.40;99.90
65692;DHT22;52411;52.716;6.696;2023-09-12T11:16:33;24.30;99.90
65692;DHT22;52411;52.716;6.696;2023-09-12T11:21:38;23.90;99.90
65692;DHT22;52411;52.716;6.696;2023-09-12T11:24:04;23.90;99.90
65692;DHT22;52411;52.716;6.696;2023-09-12T11:26:29;24.10;99.90
65692;DHT22;52411;52.716;6.696;2023-09-12T11:28:55;24.20;99.90
65692;DHT22;52411;52.716;6.696;2023-09-12T11:31:26;24.30;99.90
65692;DHT22;52411;52.716;6.696;2023-09-12T11:33:53;24.20;99.90
65692;DHT22;52411;52.716;6.696;2023-09-12T11:36:19;24.00;99.90
65692;DHT22;52411;52.716;6.696;2023-09-12T11:38:49;24.10;99.90
65692;DHT22;52411;52.716;6.696;2023-09-12T11:41:40;24.40;99.90
65692;DHT22;52411;52.716;6.696;2023-09-12T11:44:06;24.60;99.90
65692;DHT22;52411;52.716;6.696;2023-09-12T11:46:33;24.80;99.90
65692;DHT22;52411;52.716;6.696;2023-09-12T11:49:01;25.00;99.90
65692;DHT22;52411;52.716;6.696;2023-09-12T11:51:27;25.20;99.90
65692;DHT22;52411;52.716;6.696;2023-09-12T11:53:53;25.30;99.90
65692;DHT22;52411;52.716;6.696;2023-09-12T11:56:20;25.40;99.90
65692;DHT22;52411;52.716;6.696;2023-09-12T11:58:47;25.40;99.90
65692;DHT22;52411;52.716;6.696;2023-09-12T12:01:12;25.50;99.90
65692;DHT22;52411;52.716;6.696;2023-09-12T12:03:39;25.60;99.90
65692;DHT22;52411;52.716;6.696;2023-09-12T12:06:04;25.60;99.90
65692;DHT22;52411;52.716;6.696;2023-09-12T12:08:31;25.50;99.90
65692;DHT22;52411;52.716;6.696;2023-09-12T12:10:56;25.50;99.90
65692;DHT22;52411;52.716;6.696;2023-09-12T12:13:24;25.60;99.90
65692;DHT22;52411;52.716;6.696;2023-09-12T12:15:49;25.60;99.90
65692;DHT22;52411;52.716;6.696;2023-09-12T12:18:15;25.70;99.90
65692;DHT22;52411;52.716;6.696;2023-09-12T12:20:42;25.60;99.90
65692;DHT22;52411;52.716;6.696;2023-09-12T12:23:07;25.70;99.90
65692;DHT22;52411;52.716;6.696;2023-09-12T12:25:33;25.60;99.90
65692;DHT22;52411;52.716;6.696;2023-09-12T12:28:00;25.70;99.90
65692;DHT22;52411;52.716;6.696;2023-09-12T12:30:29;25.70;99.90
65692;DHT22;52411;52.716;6.696;2023-09-12T12:32:55;25.90;99.90
65692;DHT22;52411;52.716;6.696;2023-09-12T12:35:22;26.10;99.90
65692;DHT22;52411;52.716;6.696;2023-09-12T12:37:48;26.10;99.90
65692;DHT22;52411;52.716;6.696;2023-09-12T12:40:15;26.00;99.90
65692;DHT22;52411;52.716;6.696;2023-09-12T12:42:41;25.90;99.90
65692;DHT22;52411;52.716;6.696;2023-09-12T12:45:15;25.80;99.90
65692;DHT22;52411;52.716;6.696;2023-09-12T12:47:41;25.90;99.90
65692;DHT22;52411;52.716;6.696;2023-09-12T12:50:11;26.10;99.90
65692;DHT22;52411;52.716;6.696;2023-09-12T12:52:38;26.20;99.90
65692;DHT22;52411;52.716;6.696;2023-09-12T12:55:10;26.40;99.90
65692;DHT22;52411;52.716;6.696;2023-09-12T12:57:41;26.50;99.90
65692;DHT22;52411;52.716;6.696;2023-09-12T13:00:12;26.60;99.90
65692;DHT22;52411;52.716;6.696;2023-09-12T13:02:43;26.60;99.90
65692;DHT22;52411;52.716;6.696;2023-09-12T13:05:29;26.80;99.90
65692;DHT22;52411;52.716;6.696;2023-09-12T13:07:56;26.40;99.90
65692;DHT22;52411;52.716;6.696;2023-09-12T13:10:22;26.50;99.90
65692;DHT22;52411;52.716;6.696;2023-09-12T13:12:48;26.60;99.90
65692;DHT22;52411;52.716;6.696;2023-09-12T13:15:16;26.60;99.90
65692;DHT22;52411;52.716;6.696;2023-09-12T13:17:43;26.70;99.90
65692;DHT22;52411;52.716;6.696;2023-09-12T13:20:09;26.80;99.90
65692;DHT22;52411;52.716;6.696;2023-09-12T13:22:36;26.90;99.90
65692;DHT22;52411;52.716;6.696;2023-09-12T13:25:02;26.90;99.90
65692;DHT22;52411;52.716;6.696;2023-09-12T13:27:28;27.20;99.90
65692;DHT22;52411;52.716;6.696;2023-09-12T13:29:53;27.10;99.90
65692;DHT22;52411;52.716;6.696;2023-09-12T13:32:19;26.80;99.90
65692;DHT22;52411;52.716;6.696;2023-09-12T13:34:45;26.60;99.90
65692;DHT22;52411;52.716;6.696;2023-09-12T13:37:10;26.40;99.90
65692;DHT22;52411;52.716;6.696;2023-09-12T13:39:36;26.40;99.90
65692;DHT22;52411;52.716;6.696;2023-09-12T13:42:02;26.50;99.90
65692;DHT22;52411;52.716;6.696;2023-09-12T13:44:29;26.40;99.90
65692;DHT22;52411;52.716;6.696;2023-09-12T13:46:55;26.40;99.90
65692;DHT22;52411;52.716;6.696;2023-09-12T13:49:21;26.40;99.90
65692;DHT22;52411;52.716;6.696;2023-09-12T13:51:46;26.30;99.90
65692;DHT22;52411;52.716;6.696;2023-09-12T13:54:12;26.10;99.90
65692;DHT22;52411;52.716;6.696;2023-09-12T13:56:44;26.20;99.90
65692;DHT22;52411;52.716;6.696;2023-09-12T13:59:09;26.30;99.90
65692;DHT22;52411;52.716;6.696;2023-09-12T14:01:35;26.30;99.90
65692;DHT22;52411;52.716;6.696;2023-09-12T14:04:02;26.20;99.90
65692;DHT22;52411;52.716;6.696;2023-09-12T14:06:27;26.30;99.90
65692;DHT22;52411;52.716;6.696;2023-09-12T14:08:53;26.30;99.90
65692;DHT22;52411;52.716;6.696;2023-09-12T14:11:19;26.10;99.90
65692;DHT22;52411;52.716;6.696;2023-09-12T14:13:44;26.00;99.90
65692;DHT22;52411;52.716;6.696;2023-09-12T14:16:10;25.70;99.90
65692;DHT22;52411;52.716;6.696;2023-09-12T14:18:36;25.70;99.90
65692;DHT22;52411;52.716;6.696;2023-09-12T14:21:02;25.70;99.90
65692;DHT22;52411;52.716;6.696;2023-09-12T14:23:28;25.70;99.90
65692;DHT22;52411;52.716;6.696;2023-09-12T14:25:54;25.70;99.90
65692;DHT22;52411;52.716;6.696;2023-09-12T14:28:19;25.60;99.90
65692;DHT22;52411;52.716;6.696;2023-09-12T14:30:45;25.50;99.90
65692;DHT22;52411;52.716;6.696;2023-09-12T14:33:11;25.30;99.90
65692;DHT22;52411;52.716;6.696;2023-09-12T14:35:37;25.20;99.90
65692;DHT22;52411;52.716;6.696;2023-09-12T14:38:03;25.10;99.90
65692;DHT22;52411;52.716;6.696;2023-09-12T14:40:29;25.00;99.90
65692;DHT22;52411;52.716;6.696;2023-09-12T14:42:55;25.00;99.90
65692;DHT22;52411;52.716;6.696;2023-09-12T14:45:21;25.00;99.90
65692;DHT22;52411;52.716;6.696;2023-09-12T14:47:46;25.10;99.90
65692;DHT22;52411;52.716;6.696;2023-09-12T14:50:12;25.30;99.90
65692;DHT22;52411;52.716;6.696;2023-09-12T14:52:38;25.40;99.90
65692;DHT22;52411;52.716;6.696;2023-09-12T14:55:05;25.60;99.90
65692;DHT22;52411;52.716;6.696;2023-09-12T14:57:30;25.90;99.90
65692;DHT22;52411;52.716;6.696;2023-09-12T14:59:56;26.10;99.90
65692;DHT22;52411;52.716;6.696;2023-09-12T15:02:25;26.20;99.90
65692;DHT22;52411;52.716;6.696;2023-09-12T15:04:57;26.10;99.90
65692;DHT22;52411;52.716;6.696;2023-09-12T15:07:22;26.00;99.90
65692;DHT22;52411;52.716;6.696;2023-09-12T15:09:48;25.70;99.90
65692;DHT22;52411;52.716;6.696;2023-09-12T15:12:13;25.60;99.90
65692;DHT22;52411;52.716;6.696;2023-09-12T15:14:39;25.40;99.90
65692;DHT22;52411;52.716;6.696;2023-09-12T15:17:04;25.40;99.90
65692;DHT22;52411;52.716;6.696;2023-09-12T15:19:30;25.30;99.90
65692;DHT22;52411;52.716;6.696;2023-09-12T15:21:55;25.30;99.90
65692;DHT22;52411;52.716;6.696;2023-09-12T15:24:21;25.40;99.90
65692;DHT22;52411;52.716;6.696;2023-09-12T15:26:47;25.60;99.90
65692;DHT22;52411;52.716;6.696;2023-09-12T15:29:12;25.70;99.90
65692;DHT22;52411;52.716;6.696;2023-09-12T15:31:38;26.10;99.90
65692;DHT22;52411;52.716;6.696;2023-09-12T15:34:04;26.70;99.90
65692;DHT22;52411;52.716;6.696;2023-09-12T15:36:42;27.20;99.90
65692;DHT22;52411;52.716;6.696;2023-09-12T15:39:09;27.60;99.90
65692;DHT22;52411;52.716;6.696;2023-09-12T15:41:35;27.60;99.90
65692;DHT22;52411;52.716;6.696;2023-09-12T15:44:01;27.80;99.90
65692;DHT22;52411;52.716;6.696;2023-09-12T15:46:29;28.30;99.90